sensor_id;sensor_type;location;lat;lon;timestamp;P1;durP1;ratioP1;P2;durP2;ratioP2
13455;SDS011;6800;50.940;6.940;2023-12-07T00:01:12;30.20;;;25.30;;
13455;SDS011;6800;50.940;6.940;2023-12-07T00:05:14;35.37;;;27.43;;
13455;SDS011;6800;50.940;6.940;2023-12-07T00:09:15;36.93;;;27.60;;
13455;SDS011;6800;50.940;6.940;2023-12-07T00:13:17;34.90;;;26.80;;
13455;SDS011;6800;50.940;6.940;2023-12-07T00:17:18;33.17;;;25.97;;
13455;SDS011;6800;50.940;6.940;2023-12-07T00:21:20;36.93;;;26.43;;
13455;SDS011;6800;50.940;6.940;2023-12-07T00:25:22;34.73;;;25.93;;
13455;SDS011;6800;50.940;6.940;2023-12-07T00:29:36;37.20;;;27.43;;
13455;SDS011;6800;50.940;6.940;2023-12-07T00:33:41;34.50;;;25.70;;
13455;SDS011;6800;50.940;6.940;2023-12-07T00:37:43;34.33;;;25.10;;
13455;SDS011;6800;50.940;6.940;2023-12-07T00:41:45;128.40;;;87.50;;
13455;SDS011;6800;50.940;6.940;2023-12-07T00:45:48;77.30;;;53.90;;
13455;SDS011;6800;50.940;6.940;2023-12-07T00:49:50;88.37;;;61.30;;
13455;SDS011;6800;50.940;6.940;2023-12-07T00:53:51;56.33;;;39.63;;
13455;SDS011;6800;50.940;6.940;2023-12-07T00:57:53;72.33;;;50.33;;
13455;SDS011;6800;50.940;6.940;2023-12-07T01:01:54;46.20;;;34.37;;
13455;SDS011;6800;50.940;6.940;2023-12-07T01:05:56;50.27;;;34.53;;
13455;SDS011;6800;50.940;6.940;2023-12-07T01:09:58;42.83;;;31.50;;
13455;SDS011;6800;50.940;6.940;2023-12-07T01:14:00;54.17;;;38.37;;
13455;SDS011;6800;50.940;6.940;2023-12-07T01:18:01;65.47;;;44.93;;
13455;SDS011;6800;50.940;6.940;2023-12-07T01:22:03;65.37;;;47.13;;
13455;SDS011;6800;50.940;6.940;2023-12-07T01:26:04;144.30;;;91.50;;
13455;SDS011;6800;50.940;6.940;2023-12-07T01:30:06;160.97;;;91.83;;
13455;SDS011;6800;50.940;6.940;2023-12-07T01:34:08;88.30;;;58.53;;
13455;SDS011;6800;50.940;6.940;2023-12-07T01:38:10;66.13;;;48.17;;
13455;SDS011;6800;50.940;6.940;2023-12-07T01:42:12;81.07;;;54.60;;
13455;SDS011;6800;50.940;6.940;2023-12-07T01:46:14;45.03;;;32.73;;
13455;SDS011;6800;50.940;6.940;2023-12-07T01:50:16;51.90;;;36.77;;
13455;SDS011;6800;50.940;6.940;2023-12-07T01:54:24;96.23;;;62.80;;
13455;SDS011;6800;50.940;6.940;2023-12-07T01:58:26;51.83;;;38.30;;
13455;SDS011;6800;50.940;6.940;2023-12-07T02:02:28;55.87;;;37.67;;
13455;SDS011;6800;50.940;6.940;2023-12-07T02:06:29;50.17;;;37.77;;
13455;SDS011;6800;50.940;6.940;2023-12-07T02:10:31;91.97;;;63.50;;
13455;SDS011;6800;50.940;6.940;2023-12-07T02:14:32;96.30;;;64.60;;
13455;SDS011;6800;50.940;6.940;2023-12-07T02:18:38;68.10;;;46.53;;
13455;SDS011;6800;50.940;6.940;2023-12-07T02:22:54;49.17;;;34.30;;
13455;SDS011;6800;50.940;6.940;2023-12-07T02:26:57;115.33;;;83.53;;
13455;SDS011;6800;50.940;6.940;2023-12-07T02:30:58;62.27;;;47.03;;
13455;SDS011;6800;50.940;6.940;2023-12-07T02:35:00;70.87;;;45.57;;
13455;SDS011;6800;50.940;6.940;2023-12-07T02:39:02;58.30;;;40.83;;
13455;SDS011;6800;50.940;6.940;2023-12-07T02:43:05;72.17;;;47.63;;
13455;SDS011;6800;50.940;6.940;2023-12-07T02:47:06;60.13;;;41.03;;
13455;SDS011;6800;50.940;6.940;2023-12-07T02:51:08;56.77;;;39.30;;
13455;SDS011;6800;50.940;6.940;2023-12-07T02:55:10;48.37;;;35.57;;
13455;SDS011;6800;50.940;6.940;2023-12-07T02:59:11;53.37;;;37.33;;
13455;SDS011;6800;50.940;6.940;2023-12-07T03:03:14;46.97;;;33.53;;
13455;SDS011;6800;50.940;6.940;2023-12-07T03:07:15;94.83;;;54.77;;
13455;SDS011;6800;50.940;6.940;2023-12-07T03:11:17;51.87;;;35.00;;
13455;SDS011;6800;50.940;6.940;2023-12-07T03:15:19;50.23;;;35.30;;
13455;SDS011;6800;50.940;6.940;2023-12-07T03:19:20;40.23;;;29.67;;
13455;SDS011;6800;50.940;6.940;2023-12-07T03:23:22;37.63;;;28.93;;
13455;SDS011;6800;50.940;6.940;2023-12-07T03:27:24;32.50;;;27.33;;
13455;SDS011;6800;50.940;6.940;2023-12-07T03:31:26;37.40;;;27.17;;
13455;SDS011;6800;50.940;6.940;2023-12-07T03:35:28;29.40;;;25.30;;
13455;SDS011;6800;50.940;6.940;2023-12-07T03:39:30;33.57;;;23.97;;
13455;SDS011;6800;50.940;6.940;2023-12-07T03:43:33;31.80;;;25.73;;
13455;SDS011;6800;50.940;6.940;2023-12-07T03:47:35;28.80;;;24.30;;
13455;SDS011;6800;50.940;6.940;2023-12-07T03:51:37;29.63;;;23.67;;
13455;SDS011;6800;50.940;6.940;2023-12-07T03:55:39;29.63;;;23.23;;
13455;SDS011;6800;50.940;6.940;2023-12-07T03:59:41;29.03;;;23.87;;
13455;SDS011;6800;50.940;6.940;2023-12-07T04:03:43;28.63;;;23.33;;
13455;SDS011;6800;50.940;6.940;2023-12-07T04:07:44;26.40;;;22.30;;
13455;SDS011;6800;50.940;6.940;2023-12-07T04:11:46;25.67;;;22.33;;
13455;SDS011;6800;50.940;6.940;2023-12-07T04:15:47;25.17;;;21.70;;
13455;SDS011;6800;50.940;6.940;2023-12-07T04:19:49;23.40;;;20.50;;
13455;SDS011;6800;50.940;6.940;2023-12-07T04:23:51;25.10;;;20.33;;
13455;SDS011;6800;50.940;6.940;2023-12-07T04:27:53;23.67;;;20.47;;
13455;SDS011;6800;50.940;6.940;2023-12-07T04:31:54;23.90;;;19.57;;
13455;SDS011;6800;50.940;6.940;2023-12-07T04:35:56;24.50;;;19.97;;
13455;SDS011;6800;50.940;6.940;2023-12-07T04:39:57;21.13;;;18.57;;
13455;SDS011;6800;50.940;6.940;2023-12-07T04:43:59;25.23;;;19.27;;
13455;SDS011;6800;50.940;6.940;2023-12-07T04:48:01;23.33;;;18.67;;
13455;SDS011;6800;50.940;6.940;2023-12-07T04:52:04;21.47;;;18.43;;
13455;SDS011;6800;50.940;6.940;2023-12-07T04:56:06;23.20;;;18.40;;
13455;SDS011;6800;50.940;6.940;2023-12-07T05:00:08;19.53;;;17.43;;
13455;SDS011;6800;50.940;6.940;2023-12-07T05:04:14;19.57;;;17.47;;
13455;SDS011;6800;50.940;6.940;2023-12-07T05:08:16;20.33;;;17.03;;
13455;SDS011;6800;50.940;6.940;2023-12-07T05:12:19;20.67;;;16.53;;
13455;SDS011;6800;50.940;6.940;2023-12-07T05:16:21;22.43;;;17.17;;
13455;SDS011;6800;50.940;6.940;2023-12-07T05:20:22;20.80;;;17.40;;
13455;SDS011;6800;50.940;6.940;2023-12-07T05:24:25;21.20;;;17.90;;
13455;SDS011;6800;50.940;6.940;2023-12-07T05:28:27;22.27;;;18.20;;
13455;SDS011;6800;50.940;6.940;2023-12-07T05:32:31;20.63;;;16.73;;
13455;SDS011;6800;50.940;6.940;2023-12-07T05:36:32;20.37;;;17.20;;
13455;SDS011;6800;50.940;6.940;2023-12-07T05:40:34;21.73;;;16.93;;
13455;SDS011;6800;50.940;6.940;2023-12-07T05:44:35;18.70;;;15.43;;
13455;SDS011;6800;50.940;6.940;2023-12-07T05:48:37;19.90;;;17.73;;
13455;SDS011;6800;50.940;6.940;2023-12-07T05:52:39;23.93;;;17.63;;
13455;SDS011;6800;50.940;6.940;2023-12-07T05:56:41;19.60;;;16.67;;
13455;SDS011;6800;50.940;6.940;2023-12-07T06:00:43;20.57;;;18.37;;
13455;SDS011;6800;50.940;6.940;2023-12-07T06:04:45;19.60;;;17.50;;
13455;SDS011;6800;50.940;6.940;2023-12-07T06:08:46;19.40;;;17.30;;
13455;SDS011;6800;50.940;6.940;2023-12-07T06:12:48;22.03;;;17.50;;
13455;SDS011;6800;50.940;6.940;2023-12-07T06:16:50;21.97;;;16.97;;
13455;SDS011;6800;50.940;6.940;2023-12-07T06:20:52;28.37;;;18.33;;
13455;SDS011;6800;50.940;6.940;2023-12-07T06:24:53;19.97;;;16.63;;
13455;SDS011;6800;50.940;6.940;2023-12-07T06:28:55;22.77;;;17.17;;
13455;SDS011;6800;50.940;6.940;2023-12-07T06:32:56;20.70;;;17.10;;
13455;SDS011;6800;50.940;6.940;2023-12-07T06:36:58;20.40;;;16.77;;
13455;SDS011;6800;50.940;6.940;2023-12-07T06:41:01;21.00;;;18.17;;
13455;SDS011;6800;50.940;6.940;2023-12-07T06:45:03;22.00;;;18.30;;
13455;SDS011;6800;50.940;6.940;2023-12-07T06:49:05;21.30;;;18.03;;
13455;SDS011;6800;50.940;6.940;2023-12-07T06:53:07;22.23;;;17.43;;
13455;SDS011;6800;50.940;6.940;2023-12-07T06:57:08;22.03;;;18.20;;
13455;SDS011;6800;50.940;6.940;2023-12-07T07:01:09;24.03;;;19.87;;
13455;SDS011;6800;50.940;6.940;2023-12-07T07:05:11;22.20;;;18.40;;
13455;SDS011;6800;50.940;6.940;2023-12-07T07:09:13;24.50;;;19.10;;
13455;SDS011;6800;50.940;6.940;2023-12-07T07:13:14;24.03;;;20.20;;
13455;SDS011;6800;50.940;6.940;2023-12-07T07:17:21;22.30;;;19.07;;
13455;SDS011;6800;50.940;6.940;2023-12-07T07:21:23;24.30;;;19.80;;
13455;SDS011;6800;50.940;6.940;2023-12-07T07:25:24;25.07;;;19.07;;
13455;SDS011;6800;50.940;6.940;2023-12-07T07:29:26;23.27;;;19.63;;
13455;SDS011;6800;50.940;6.940;2023-12-07T07:33:30;22.83;;;18.90;;
13455;SDS011;6800;50.940;6.940;2023-12-07T07:37:32;26.47;;;19.20;;
13455;SDS011;6800;50.940;6.940;2023-12-07T07:41:35;23.53;;;18.60;;
13455;SDS011;6800;50.940;6.940;2023-12-07T07:45:37;24.80;;;18.47;;
13455;SDS011;6800;50.940;6.940;2023-12-07T07:49:39;23.83;;;18.63;;
13455;SDS011;6800;50.940;6.940;2023-12-07T07:53:40;23.00;;;20.13;;
13455;SDS011;6800;50.940;6.940;2023-12-07T07:57:42;25.23;;;19.03;;
13455;SDS011;6800;50.940;6.940;2023-12-07T08:01:45;24.73;;;19.27;;
13455;SDS011;6800;50.940;6.940;2023-12-07T08:05:48;23.50;;;19.63;;
13455;SDS011;6800;50.940;6.940;2023-12-07T08:09:50;25.53;;;20.27;;
13455;SDS011;6800;50.940;6.940;2023-12-07T08:13:52;23.80;;;18.47;;
13455;SDS011;6800;50.940;6.940;2023-12-07T08:17:53;26.03;;;19.60;;
13455;SDS011;6800;50.940;6.940;2023-12-07T08:21:57;24.00;;;19.90;;
13455;SDS011;6800;50.940;6.940;2023-12-07T08:25:58;26.37;;;20.07;;
13455;SDS011;6800;50.940;6.940;2023-12-07T08:30:00;23.00;;;19.73;;
13455;SDS011;6800;50.940;6.940;2023-12-07T08:34:02;25.60;;;19.50;;
13455;SDS011;6800;50.940;6.940;2023-12-07T08:38:04;22.47;;;19.70;;
13455;SDS011;6800;50.940;6.940;2023-12-07T08:42:06;24.67;;;19.50;;
13455;SDS011;6800;50.940;6.940;2023-12-07T08:46:07;22.73;;;19.07;;
13455;SDS011;6800;50.940;6.940;2023-12-07T08:50:09;24.27;;;18.77;;
13455;SDS011;6800;50.940;6.940;2023-12-07T08:54:10;23.57;;;18.63;;
13455;SDS011;6800;50.940;6.940;2023-12-07T08:58:13;21.43;;;18.23;;
13455;SDS011;6800;50.940;6.940;2023-12-07T09:02:14;22.07;;;17.60;;
13455;SDS011;6800;50.940;6.940;2023-12-07T09:06:30;19.93;;;17.40;;
13455;SDS011;6800;50.940;6.940;2023-12-07T09:10:32;19.57;;;16.83;;
13455;SDS011;6800;50.940;6.940;2023-12-07T09:14:34;16.67;;;14.77;;
13455;SDS011;6800;50.940;6.940;2023-12-07T09:18:38;19.10;;;16.10;;
13455;SDS011;6800;50.940;6.940;2023-12-07T09:22:40;16.87;;;14.90;;
13455;SDS011;6800;50.940;6.940;2023-12-07T09:26:44;16.93;;;15.13;;
13455;SDS011;6800;50.940;6.940;2023-12-07T09:30:45;18.57;;;16.13;;
13455;SDS011;6800;50.940;6.940;2023-12-07T09:34:47;18.30;;;16.33;;
13455;SDS011;6800;50.940;6.940;2023-12-07T09:38:52;18.97;;;15.23;;
13455;SDS011;6800;50.940;6.940;2023-12-07T09:42:53;16.33;;;14.20;;
13455;SDS011;6800;50.940;6.940;2023-12-07T09:46:55;15.87;;;14.17;;
13455;SDS011;6800;50.940;6.940;2023-12-07T09:50:56;17.73;;;13.67;;
13455;SDS011;6800;50.940;6.940;2023-12-07T09:55:02;33.47;;;15.07;;
13455;SDS011;6800;50.940;6.940;2023-12-07T09:59:04;18.50;;;14.60;;
13455;SDS011;6800;50.940;6.940;2023-12-07T10:03:07;16.30;;;14.57;;
13455;SDS011;6800;50.940;6.940;2023-12-07T10:07:10;17.23;;;15.43;;
13455;SDS011;6800;50.940;6.940;2023-12-07T10:11:11;17.07;;;15.37;;
13455;SDS011;6800;50.940;6.940;2023-12-07T10:15:16;21.93;;;15.90;;
13455;SDS011;6800;50.940;6.940;2023-12-07T10:19:21;17.07;;;14.63;;
13455;SDS011;6800;50.940;6.940;2023-12-07T10:23:33;22.83;;;14.93;;
13455;SDS011;6800;50.940;6.940;2023-12-07T10:27:34;18.13;;;14.60;;
13455;SDS011;6800;50.940;6.940;2023-12-07T10:31:37;15.60;;;14.00;;
13455;SDS011;6800;50.940;6.940;2023-12-07T10:35:39;15.73;;;14.10;;
13455;SDS011;6800;50.940;6.940;2023-12-07T10:39:41;16.70;;;15.03;;
13455;SDS011;6800;50.940;6.940;2023-12-07T10:43:43;19.63;;;16.77;;
13455;SDS011;6800;50.940;6.940;2023-12-07T10:47:46;16.73;;;15.10;;
13455;SDS011;6800;50.940;6.940;2023-12-07T10:51:57;15.73;;;14.20;;
13455;SDS011;6800;50.940;6.940;2023-12-07T10:56:01;16.73;;;14.50;;
13455;SDS011;6800;50.940;6.940;2023-12-07T11:00:04;15.83;;;13.97;;
13455;SDS011;6800;50.940;6.940;2023-12-07T11:04:11;16.50;;;13.87;;
13455;SDS011;6800;50.940;6.940;2023-12-07T11:08:19;59.30;;;19.70;;
13455;SDS011;6800;50.940;6.940;2023-12-07T11:13:07;16.63;;;14.53;;
13455;SDS011;6800;50.940;6.940;2023-12-07T11:17:00;14.87;;;13.37;;
13455;SDS011;6800;50.940;6.940;2023-12-07T11:21:04;29.13;;;14.63;;
13455;SDS011;6800;50.940;6.940;2023-12-07T11:25:06;14.73;;;13.17;;
13455;SDS011;6800;50.940;6.940;2023-12-07T11:29:09;17.70;;;13.70;;
13455;SDS011;6800;50.940;6.940;2023-12-07T11:33:14;38.77;;;16.73;;
13455;SDS011;6800;50.940;6.940;2023-12-07T11:37:17;29.50;;;14.83;;
13455;SDS011;6800;50.940;6.940;2023-12-07T11:41:19;16.30;;;13.93;;
13455;SDS011;6800;50.940;6.940;2023-12-07T11:45:37;17.60;;;14.77;;
13455;SDS011;6800;50.940;6.940;2023-12-07T11:49:56;17.53;;;15.23;;
13455;SDS011;6800;50.940;6.940;2023-12-07T11:54:04;15.93;;;14.03;;
13455;SDS011;6800;50.940;6.940;2023-12-07T11:58:06;15.73;;;13.97;;
13455;SDS011;6800;50.940;6.940;2023-12-07T12:02:14;15.03;;;13.43;;
13455;SDS011;6800;50.940;6.940;2023-12-07T12:06:16;15.87;;;13.53;;
13455;SDS011;6800;50.940;6.940;2023-12-07T12:10:18;16.50;;;13.47;;
13455;SDS011;6800;50.940;6.940;2023-12-07T12:14:20;18.63;;;14.47;;
13455;SDS011;6800;50.940;6.940;2023-12-07T12:18:23;16.13;;;14.60;;
13455;SDS011;6800;50.940;6.940;2023-12-07T12:22:27;41.93;;;18.13;;
13455;SDS011;6800;50.940;6.940;2023-12-07T12:26:28;15.43;;;13.80;;
13455;SDS011;6800;50.940;6.940;2023-12-07T12:30:31;15.07;;;13.43;;
13455;SDS011;6800;50.940;6.940;2023-12-07T12:34:33;15.10;;;13.00;;
13455;SDS011;6800;50.940;6.940;2023-12-07T12:38:36;15.67;;;13.50;;
13455;SDS011;6800;50.940;6.940;2023-12-07T12:42:45;20.03;;;14.57;;
13455;SDS011;6800;50.940;6.940;2023-12-07T12:46:54;20.73;;;14.00;;
13455;SDS011;6800;50.940;6.940;2023-12-07T12:50:55;16.83;;;13.83;;
13455;SDS011;6800;50.940;6.940;2023-12-07T12:54:57;13.27;;;11.97;;
13455;SDS011;6800;50.940;6.940;2023-12-07T12:58:59;13.07;;;11.60;;
13455;SDS011;6800;50.940;6.940;2023-12-07T13:03:06;13.23;;;11.90;;
13455;SDS011;6800;50.940;6.940;2023-12-07T13:07:08;15.50;;;13.80;;
13455;SDS011;6800;50.940;6.940;2023-12-07T13:11:14;13.47;;;12.13;;
13455;SDS011;6800;50.940;6.940;2023-12-07T13:15:19;13.43;;;12.03;;
13455;SDS011;6800;50.940;6.940;2023-12-07T13:19:21;14.80;;;12.10;;
13455;SDS011;6800;50.940;6.940;2023-12-07T13:23:23;12.80;;;10.93;;
13455;SDS011;6800;50.940;6.940;2023-12-07T13:27:24;13.43;;;11.33;;
13455;SDS011;6800;50.940;6.940;2023-12-07T13:31:26;14.97;;;12.27;;
13455;SDS011;6800;50.940;6.940;2023-12-07T13:35:27;21.93;;;13.27;;
13455;SDS011;6800;50.940;6.940;2023-12-07T13:39:29;21.60;;;11.47;;
13455;SDS011;6800;50.940;6.940;2023-12-07T13:43:32;12.63;;;11.17;;
13455;SDS011;6800;50.940;6.940;2023-12-07T13:47:36;15.83;;;11.77;;
13455;SDS011;6800;50.940;6.940;2023-12-07T13:51:40;13.60;;;11.83;;
13455;SDS011;6800;50.940;6.940;2023-12-07T13:55:42;11.67;;;10.47;;
13455;SDS011;6800;50.940;6.940;2023-12-07T13:59:44;14.67;;;13.17;;
13455;SDS011;6800;50.940;6.940;2023-12-07T14:03:46;22.30;;;12.27;;
13455;SDS011;6800;50.940;6.940;2023-12-07T14:07:47;18.77;;;12.47;;
13455;SDS011;6800;50.940;6.940;2023-12-07T14:11:49;22.30;;;12.10;;
13455;SDS011;6800;50.940;6.940;2023-12-07T14:15:51;14.13;;;10.87;;
13455;SDS011;6800;50.940;6.940;2023-12-07T14:20:00;15.47;;;11.57;;
13455;SDS011;6800;50.940;6.940;2023-12-07T14:24:22;15.10;;;11.03;;
13455;SDS011;6800;50.940;6.940;2023-12-07T14:28:25;39.23;;;12.47;;
13455;SDS011;6800;50.940;6.940;2023-12-07T14:32:29;15.07;;;11.27;;
13455;SDS011;6800;50.940;6.940;2023-12-07T14:36:31;17.70;;;12.60;;
13455;SDS011;6800;50.940;6.940;2023-12-07T14:40:32;14.43;;;12.67;;
13455;SDS011;6800;50.940;6.940;2023-12-07T14:44:36;21.70;;;12.67;;
13455;SDS011;6800;50.940;6.940;2023-12-07T14:48:37;39.30;;;15.13;;
13455;SDS011;6800;50.940;6.940;2023-12-07T14:52:39;20.03;;;12.10;;
13455;SDS011;6800;50.940;6.940;2023-12-07T14:56:40;43.67;;;14.87;;
13455;SDS011;6800;50.940;6.940;2023-12-07T15:00:42;59.80;;;16.73;;
13455;SDS011;6800;50.940;6.940;2023-12-07T15:04:45;14.00;;;11.43;;
13455;SDS011;6800;50.940;6.940;2023-12-07T15:08:48;12.90;;;11.50;;
13455;SDS011;6800;50.940;6.940;2023-12-07T15:12:50;15.97;;;11.70;;
13455;SDS011;6800;50.940;6.940;2023-12-07T15:16:52;55.83;;;17.73;;
13455;SDS011;6800;50.940;6.940;2023-12-07T15:20:55;41.70;;;14.43;;
13455;SDS011;6800;50.940;6.940;2023-12-07T15:24:57;51.23;;;14.83;;
13455;SDS011;6800;50.940;6.940;2023-12-07T15:28:59;54.70;;;15.57;;
13455;SDS011;6800;50.940;6.940;2023-12-07T15:33:01;18.40;;;12.77;;
13455;SDS011;6800;50.940;6.940;2023-12-07T15:37:04;15.47;;;11.97;;
13455;SDS011;6800;50.940;6.940;2023-12-07T15:41:06;14.63;;;11.63;;
13455;SDS011;6800;50.940;6.940;2023-12-07T15:45:08;14.07;;;11.47;;
13455;SDS011;6800;50.940;6.940;2023-12-07T15:49:10;43.13;;;16.33;;
13455;SDS011;6800;50.940;6.940;2023-12-07T15:53:11;15.87;;;12.80;;
13455;SDS011;6800;50.940;6.940;2023-12-07T15:57:13;49.93;;;16.70;;
13455;SDS011;6800;50.940;6.940;2023-12-07T16:01:15;49.20;;;15.93;;
13455;SDS011;6800;50.940;6.940;2023-12-07T16:05:16;16.97;;;13.40;;
13455;SDS011;6800;50.940;6.940;2023-12-07T16:09:18;16.97;;;14.00;;
13455;SDS011;6800;50.940;6.940;2023-12-07T16:13:19;16.77;;;12.80;;
13455;SDS011;6800;50.940;6.940;2023-12-07T16:17:21;20.97;;;13.93;;
13455;SDS011;6800;50.940;6.940;2023-12-07T16:21:23;14.40;;;12.97;;
13455;SDS011;6800;50.940;6.940;2023-12-07T16:25:26;14.40;;;12.83;;
13455;SDS011;6800;50.940;6.940;2023-12-07T16:29:27;16.57;;;13.60;;
13455;SDS011;6800;50.940;6.940;2023-12-07T16:33:29;17.07;;;13.20;;
13455;SDS011;6800;50.940;6.940;2023-12-07T16:37:32;15.20;;;13.60;;
13455;SDS011;6800;50.940;6.940;2023-12-07T16:41:34;17.50;;;14.20;;
13455;SDS011;6800;50.940;6.940;2023-12-07T16:45:48;17.10;;;14.47;;
13455;SDS011;6800;50.940;6.940;2023-12-07T16:49:50;18.23;;;14.33;;
13455;SDS011;6800;50.940;6.940;2023-12-07T16:53:51;18.90;;;14.73;;
13455;SDS011;6800;50.940;6.940;2023-12-07T16:57:53;16.27;;;14.43;;
13455;SDS011;6800;50.940;6.940;2023-12-07T17:01:56;19.33;;;16.10;;
13455;SDS011;6800;50.940;6.940;2023-12-07T17:05:58;19.80;;;15.13;;
13455;SDS011;6800;50.940;6.940;2023-12-07T17:10:00;17.30;;;15.47;;
13455;SDS011;6800;50.940;6.940;2023-12-07T17:14:01;20.30;;;16.17;;
13455;SDS011;6800;50.940;6.940;2023-12-07T17:18:04;20.50;;;16.77;;
13455;SDS011;6800;50.940;6.940;2023-12-07T17:22:06;22.43;;;18.30;;
13455;SDS011;6800;50.940;6.940;2023-12-07T17:26:10;18.83;;;16.83;;
13455;SDS011;6800;50.940;6.940;2023-12-07T17:30:13;19.27;;;17.03;;
13455;SDS011;6800;50.940;6.940;2023-12-07T17:34:15;21.90;;;18.50;;
13455;SDS011;6800;50.940;6.940;2023-12-07T17:38:17;24.00;;;18.57;;
13455;SDS011;6800;50.940;6.940;2023-12-07T17:42:19;22.77;;;18.30;;
13455;SDS011;6800;50.940;6.940;2023-12-07T17:46:20;21.27;;;18.00;;
13455;SDS011;6800;50.940;6.940;2023-12-07T17:50:22;21.50;;;17.63;;
13455;SDS011;6800;50.940;6.940;2023-12-07T17:54:23;21.90;;;18.60;;
13455;SDS011;6800;50.940;6.940;2023-12-07T17:58:25;22.17;;;18.53;;
13455;SDS011;6800;50.940;6.940;2023-12-07T18:02:26;25.37;;;18.33;;
13455;SDS011;6800;50.940;6.940;2023-12-07T18:06:28;21.70;;;18.47;;
13455;SDS011;6800;50.940;6.940;2023-12-07T18:10:30;22.00;;;18.40;;
13455;SDS011;6800;50.940;6.940;2023-12-07T18:14:32;21.60;;;18.00;;
13455;SDS011;6800;50.940;6.940;2023-12-07T18:18:33;22.37;;;18.20;;
13455;SDS011;6800;50.940;6.940;2023-12-07T18:22:35;18.70;;;16.20;;
13455;SDS011;6800;50.940;6.940;2023-12-07T18:26:36;20.63;;;17.60;;
13455;SDS011;6800;50.940;6.940;2023-12-07T18:30:38;20.33;;;17.17;;
13455;SDS011;6800;50.940;6.940;2023-12-07T18:34:40;22.03;;;17.33;;
13455;SDS011;6800;50.940;6.940;2023-12-07T18:38:42;22.97;;;18.13;;
13455;SDS011;6800;50.940;6.940;2023-12-07T18:42:43;20.67;;;17.57;;
13455;SDS011;6800;50.940;6.940;2023-12-07T18:46:45;24.53;;;18.50;;
13455;SDS011;6800;50.940;6.940;2023-12-07T18:50:47;19.73;;;16.90;;
13455;SDS011;6800;50.940;6.940;2023-12-07T18:54:49;19.70;;;16.63;;
13455;SDS011;6800;50.940;6.940;2023-12-07T18:58:50;19.50;;;17.23;;
13455;SDS011;6800;50.940;6.940;2023-12-07T19:02:51;21.43;;;17.40;;
13455;SDS011;6800;50.940;6.940;2023-12-07T19:06:55;24.27;;;18.57;;
13455;SDS011;6800;50.940;6.940;2023-12-07T19:11:00;18.50;;;16.53;;
13455;SDS011;6800;50.940;6.940;2023-12-07T19:15:01;18.33;;;15.80;;
13455;SDS011;6800;50.940;6.940;2023-12-07T19:19:03;20.60;;;15.73;;
13455;SDS011;6800;50.940;6.940;2023-12-07T19:23:05;18.07;;;15.40;;
13455;SDS011;6800;50.940;6.940;2023-12-07T19:27:07;19.10;;;15.93;;
13455;SDS011;6800;50.940;6.940;2023-12-07T19:31:09;19.07;;;16.20;;
13455;SDS011;6800;50.940;6.940;2023-12-07T19:35:11;17.70;;;15.23;;
13455;SDS011;6800;50.940;6.940;2023-12-07T19:39:13;17.27;;;15.40;;
13455;SDS011;6800;50.940;6.940;2023-12-07T19:43:17;18.90;;;15.83;;
13455;SDS011;6800;50.940;6.940;2023-12-07T19:47:19;20.60;;;16.70;;
13455;SDS011;6800;50.940;6.940;2023-12-07T19:51:20;18.03;;;15.00;;
13455;SDS011;6800;50.940;6.940;2023-12-07T19:55:22;19.17;;;14.47;;
13455;SDS011;6800;50.940;6.940;2023-12-07T19:59:24;18.93;;;15.47;;
13455;SDS011;6800;50.940;6.940;2023-12-07T20:03:26;18.53;;;15.10;;
13455;SDS011;6800;50.940;6.940;2023-12-07T20:07:29;21.43;;;16.63;;
13455;SDS011;6800;50.940;6.940;2023-12-07T20:11:30;18.80;;;15.97;;
13455;SDS011;6800;50.940;6.940;2023-12-07T20:15:33;18.20;;;15.80;;
13455;SDS011;6800;50.940;6.940;2023-12-07T20:19:34;19.00;;;16.40;;
13455;SDS011;6800;50.940;6.940;2023-12-07T20:23:36;19.80;;;16.40;;
13455;SDS011;6800;50.940;6.940;2023-12-07T20:27:41;22.87;;;18.07;;
13455;SDS011;6800;50.940;6.940;2023-12-07T20:31:42;21.33;;;17.20;;
13455;SDS011;6800;50.940;6.940;2023-12-07T20:35:44;21.63;;;17.80;;
13455;SDS011;6800;50.940;6.940;2023-12-07T20:39:46;26.70;;;19.83;;
13455;SDS011;6800;50.940;6.940;2023-12-07T20:43:48;26.50;;;19.83;;
13455;SDS011;6800;50.940;6.940;2023-12-07T20:47:50;23.73;;;18.63;;
13455;SDS011;6800;50.940;6.940;2023-12-07T20:51:51;24.50;;;20.20;;
13455;SDS011;6800;50.940;6.940;2023-12-07T20:55:53;23.57;;;18.77;;
13455;SDS011;6800;50.940;6.940;2023-12-07T20:59:55;25.33;;;20.50;;
13455;SDS011;6800;50.940;6.940;2023-12-07T21:03:56;26.13;;;21.00;;
13455;SDS011;6800;50.940;6.940;2023-12-07T21:07:58;25.93;;;20.40;;
13455;SDS011;6800;50.940;6.940;2023-12-07T21:12:00;23.67;;;19.97;;
13455;SDS011;6800;50.940;6.940;2023-12-07T21:16:02;25.27;;;20.40;;
13455;SDS011;6800;50.940;6.940;2023-12-07T21:20:04;24.23;;;19.67;;
13455;SDS011;6800;50.940;6.940;2023-12-07T21:24:06;23.93;;;19.77;;
13455;SDS011;6800;50.940;6.940;2023-12-07T21:28:07;27.17;;;20.27;;
13455;SDS011;6800;50.940;6.940;2023-12-07T21:32:09;22.70;;;19.47;;
13455;SDS011;6800;50.940;6.940;2023-12-07T21:36:11;22.77;;;18.97;;
13455;SDS011;6800;50.940;6.940;2023-12-07T21:40:12;18.37;;;16.23;;
13455;SDS011;6800;50.940;6.940;2023-12-07T21:44:14;19.00;;;16.77;;
13455;SDS011;6800;50.940;6.940;2023-12-07T21:48:17;17.97;;;16.07;;
13455;SDS011;6800;50.940;6.940;2023-12-07T21:52:19;16.73;;;15.03;;
13455;SDS011;6800;50.940;6.940;2023-12-07T21:56:20;17.77;;;15.97;;
13455;SDS011;6800;50.940;6.940;2023-12-07T22:00:22;16.03;;;14.40;;
13455;SDS011;6800;50.940;6.940;2023-12-07T22:04:24;18.13;;;14.07;;
13455;SDS011;6800;50.940;6.940;2023-12-07T22:08:25;17.37;;;14.80;;
13455;SDS011;6800;50.940;6.940;2023-12-07T22:12:27;17.13;;;14.20;;
13455;SDS011;6800;50.940;6.940;2023-12-07T22:16:29;15.17;;;13.70;;
13455;SDS011;6800;50.940;6.940;2023-12-07T22:20:30;15.43;;;13.80;;
13455;SDS011;6800;50.940;6.940;2023-12-07T22:24:32;15.97;;;14.27;;
13455;SDS011;6800;50.940;6.940;2023-12-07T22:28:35;15.63;;;13.97;;
13455;SDS011;6800;50.940;6.940;2023-12-07T22:32:37;16.37;;;14.63;;
13455;SDS011;6800;50.940;6.940;2023-12-07T22:36:38;14.90;;;13.33;;
13455;SDS011;6800;50.940;6.940;2023-12-07T22:40:40;18.97;;;15.27;;
13455;SDS011;6800;50.940;6.940;2023-12-07T22:44:41;15.30;;;13.23;;
13455;SDS011;6800;50.940;6.940;2023-12-07T22:48:43;14.30;;;12.90;;
13455;SDS011;6800;50.940;6.940;2023-12-07T22:52:44;14.43;;;13.03;;
13455;SDS011;6800;50.940;6.940;2023-12-07T22:56:46;14.27;;;12.83;;
13455;SDS011;6800;50.940;6.940;2023-12-07T23:00:48;14.50;;;12.90;;
13455;SDS011;6800;50.940;6.940;2023-12-07T23:04:54;13.47;;;12.17;;
13455;SDS011;6800;50.940;6.940;2023-12-07T23:08:56;13.97;;;12.50;;
13455;SDS011;6800;50.940;6.940;2023-12-07T23:12:57;14.80;;;12.43;;
13455;SDS011;6800;50.940;6.940;2023-12-07T23:16:59;15.23;;;12.17;;
13455;SDS011;6800;50.940;6.940;2023-12-07T23:21:00;14.93;;;13.37;;
13455;SDS011;6800;50.940;6.940;2023-12-07T23:25:03;15.17;;;13.27;;
13455;SDS011;6800;50.940;6.940;2023-12-07T23:29:06;14.27;;;12.77;;
13455;SDS011;6800;50.940;6.940;2023-12-07T23:33:08;14.77;;;13.27;;
13455;SDS011;6800;50.940;6.940;2023-12-07T23:37:10;15.97;;;13.13;;
13455;SDS011;6800;50.940;6.940;2023-12-07T23:41:12;15.83;;;13.33;;
13455;SDS011;6800;50.940;6.940;2023-12-07T23:45:13;15.13;;;13.23;;
13455;SDS011;6800;50.940;6.940;2023-12-07T23:49:15;14.13;;;12.63;;
13455;SDS011;6800;50.940;6.940;2023-12-07T23:53:17;16.23;;;12.90;;
13455;SDS011;6800;50.940;6.940;2023-12-07T23:57:18;13.97;;;12.40;;
